createdAt,value
2018-07-05T00:02:35.845Z,11.20
2018-07-05T00:05:15.642Z,14.55
2018-07-05T00:07:55.449Z,11.70
2018-07-05T00:10:35.241Z,13.30
2018-07-05T00:13:14.824Z,10.90
2018-07-05T00:15:54.446Z,12.88
2018-07-05T00:18:34.029Z,10.23
2018-07-05T00:21:13.680Z,11.25
2018-07-05T00:23:53.336Z,13.95
2018-07-05T00:26:32.965Z,14.07
2018-07-05T00:29:12.669Z,15.32
2018-07-05T00:31:52.420Z,16.77
2018-07-05T00:34:32.208Z,23.80
2018-07-05T00:37:11.802Z,13.83
2018-07-05T00:39:51.388Z,15.20
2018-07-05T00:42:31.120Z,20.80
2018-07-05T00:45:10.600Z,19.50
2018-07-05T00:47:50.348Z,18.17
2018-07-05T00:50:23.884Z,14.98
2018-07-05T00:53:03.377Z,16.17
2018-07-05T00:55:43.064Z,15.50
2018-07-05T00:58:23.858Z,13.03
2018-07-05T01:01:03.583Z,14.03
2018-07-05T01:03:43.316Z,17.62
2018-07-05T01:06:22.965Z,18.10
2018-07-05T01:09:02.693Z,16.50
2018-07-05T01:11:42.371Z,15.18
2018-07-05T01:14:21.914Z,14.18
2018-07-05T01:17:01.512Z,16.35
2018-07-05T01:19:41.245Z,19.45
2018-07-05T01:22:20.980Z,17.50
2018-07-05T01:25:00.660Z,16.85
2018-07-05T01:27:40.351Z,14.78
2018-07-05T01:30:20.144Z,18.12
2018-07-05T01:32:59.670Z,20.75
2018-07-05T01:35:39.305Z,17.35
2018-07-05T01:38:18.919Z,15.32
2018-07-05T01:40:58.553Z,24.90
2018-07-05T01:43:38.252Z,17.62
2018-07-05T01:46:17.839Z,18.60
2018-07-05T01:48:57.428Z,17.10
2018-07-05T01:51:37.164Z,17.62
2018-07-05T01:54:16.928Z,17.10
2018-07-05T01:56:56.581Z,17.00
2018-07-05T01:59:36.225Z,15.43
2018-07-05T02:02:09.816Z,18.62
2018-07-05T02:04:49.404Z,14.98
2018-07-05T02:07:28.896Z,22.55
2018-07-05T02:10:08.436Z,14.15
2018-07-05T02:12:48.081Z,14.60
2018-07-05T02:15:27.520Z,19.57
2018-07-05T02:18:07.162Z,18.42
2018-07-05T02:20:46.706Z,16.32
2018-07-05T02:23:26.245Z,15.85
2018-07-05T02:26:05.681Z,18.87
2018-07-05T02:28:45.377Z,13.15
2018-07-05T02:31:25.121Z,15.45
2018-07-05T02:34:09.757Z,16.05
2018-07-05T02:36:49.445Z,18.98
2018-07-05T02:39:34.668Z,14.98
2018-07-05T02:42:15.348Z,14.40
2018-07-05T02:44:55.383Z,16.90
2018-07-05T02:47:34.997Z,12.25
2018-07-05T02:50:14.845Z,13.83
2018-07-05T02:52:54.477Z,15.68
2018-07-05T02:55:34.112Z,17.42
2018-07-05T02:58:13.755Z,15.03
2018-07-05T03:00:53.336Z,13.88
2018-07-05T03:03:33.014Z,10.93
2018-07-05T03:06:12.554Z,12.65
2018-07-05T03:08:52.144Z,12.33
2018-07-05T03:11:31.735Z,12.13
2018-07-05T03:14:11.357Z,12.23
2018-07-05T03:16:50.826Z,13.70
2018-07-05T03:19:30.369Z,12.40
2018-07-05T03:22:10.046Z,12.95
2018-07-05T03:24:49.775Z,12.85
2018-07-05T03:27:29.356Z,15.65
2018-07-05T03:30:09.001Z,17.20
2018-07-05T03:32:48.522Z,14.75
2018-07-05T03:35:27.985Z,16.80
2018-07-05T03:38:07.626Z,21.93
2018-07-05T03:40:47.315Z,12.18
2018-07-05T03:43:26.956Z,18.40
2018-07-05T03:46:00.405Z,14.38
2018-07-05T03:48:39.889Z,15.85
2018-07-05T03:51:19.485Z,14.93
2018-07-05T03:53:59.097Z,17.02
2018-07-05T03:56:38.828Z,15.18
2018-07-05T03:59:18.553Z,21.40
2018-07-05T04:01:58.084Z,17.30
2018-07-05T04:04:37.689Z,16.02
2018-07-05T04:07:17.273Z,19.15
2018-07-05T04:09:57.044Z,24.87
2018-07-05T04:12:36.565Z,18.12
2018-07-05T04:15:16.137Z,18.15
2018-07-05T04:17:55.841Z,19.12
2018-07-05T04:20:35.588Z,22.90
2018-07-05T04:23:15.168Z,18.90
2018-07-05T04:25:54.892Z,20.05
2018-07-05T04:28:34.429Z,19.37
2018-07-05T04:31:14.217Z,14.20
2018-07-05T04:33:53.881Z,9.88
2018-07-05T04:36:33.543Z,20.92
2018-07-05T04:39:13.253Z,17.85
2018-07-05T04:41:53.149Z,10.78
2018-07-05T04:44:33.000Z,10.85
2018-07-05T04:47:12.547Z,23.77
2018-07-05T04:49:52.242Z,15.90
2018-07-05T04:52:31.746Z,15.30
2018-07-05T04:55:11.466Z,15.65
2018-07-05T04:57:51.008Z,20.12
2018-07-05T05:00:30.809Z,11.68
2018-07-05T05:03:10.340Z,14.83
2018-07-05T05:05:49.777Z,10.70
2018-07-05T05:08:29.492Z,12.55
2018-07-05T05:11:09.288Z,13.53
2018-07-05T05:13:48.801Z,10.08
2018-07-05T05:16:28.345Z,12.13
2018-07-05T05:19:07.861Z,11.95
2018-07-05T05:21:47.458Z,11.50
2018-07-05T05:24:27.140Z,13.72
2018-07-05T05:27:06.837Z,15.13
2018-07-05T05:29:46.324Z,15.35
2018-07-05T05:32:25.964Z,17.82
2018-07-05T05:35:05.663Z,17.35
2018-07-05T05:37:45.172Z,26.10
2018-07-05T05:40:24.877Z,20.17
2018-07-05T05:43:04.455Z,24.55
2018-07-05T05:45:44.152Z,16.42
2018-07-05T05:48:23.840Z,23.02
2018-07-05T05:51:03.529Z,25.50
2018-07-05T05:53:37.131Z,21.65
2018-07-05T05:56:16.870Z,24.27
2018-07-05T05:58:56.380Z,19.85
2018-07-05T06:01:35.882Z,25.32
2018-07-05T06:04:15.665Z,21.17
2018-07-05T06:06:55.255Z,21.25
2018-07-05T06:09:34.829Z,18.17
2018-07-05T06:12:14.440Z,19.98
2018-07-05T06:14:53.932Z,27.37
2018-07-05T06:17:33.420Z,18.25
2018-07-05T06:20:12.908Z,18.95
2018-07-05T06:22:52.452Z,20.37
2018-07-05T06:25:32.127Z,26.20
2018-07-05T06:28:11.846Z,18.15
2018-07-05T06:30:51.482Z,19.20
2018-07-05T06:33:30.962Z,23.27
2018-07-05T06:36:10.613Z,21.95
2018-07-05T06:38:50.177Z,21.23
2018-07-05T06:41:29.784Z,16.25
2018-07-05T06:44:09.406Z,20.10
2018-07-05T06:46:49.796Z,15.93
2018-07-05T06:49:29.503Z,18.57
2018-07-05T06:52:09.241Z,15.10
2018-07-05T06:54:48.801Z,16.80
2018-07-05T06:57:28.537Z,9.78
2018-07-05T07:00:08.116Z,11.68
2018-07-05T07:02:47.721Z,8.08
2018-07-05T07:05:27.991Z,11.30
2018-07-05T07:08:07.609Z,13.60
2018-07-05T07:10:47.162Z,8.03
2018-07-05T07:13:26.791Z,7.75
2018-07-05T07:16:06.283Z,7.58
2018-07-05T07:18:45.919Z,5.33
2018-07-05T07:21:25.764Z,6.20
2018-07-05T07:24:05.329Z,6.30
2018-07-05T07:26:45.008Z,5.78
2018-07-05T07:29:24.625Z,5.62
2018-07-05T07:32:04.381Z,7.53
2018-07-05T07:34:44.125Z,13.68
2018-07-05T07:37:23.937Z,3.67
2018-07-05T07:40:03.543Z,5.75
2018-07-05T07:42:30.830Z,3.02
2018-07-05T07:44:58.092Z,3.72
2018-07-05T07:47:25.376Z,4.12
2018-07-05T07:49:52.640Z,7.47
2018-07-05T07:52:19.928Z,6.53
2018-07-05T07:54:47.193Z,6.67
2018-07-05T07:57:14.489Z,8.85
2018-07-05T07:59:41.737Z,7.45
2018-07-05T08:02:09.285Z,5.97
2018-07-05T08:04:36.550Z,11.75
2018-07-05T08:07:03.853Z,8.28
2018-07-05T08:09:31.112Z,7.80
2018-07-05T08:11:58.396Z,6.65
2018-07-05T08:14:25.653Z,6.62
2018-07-05T08:16:52.944Z,6.92
2018-07-05T08:19:20.208Z,6.97
2018-07-05T08:21:47.488Z,9.23
2018-07-05T08:24:14.754Z,9.55
2018-07-05T08:26:42.045Z,4.92
2018-07-05T08:29:09.304Z,8.10
2018-07-05T08:31:36.609Z,4.40
2018-07-05T08:34:03.866Z,7.90
2018-07-05T08:36:31.122Z,5.67
2018-07-05T08:38:58.413Z,4.42
2018-07-05T08:41:25.929Z,3.98
2018-07-05T08:43:53.240Z,6.90
2018-07-05T08:46:20.521Z,7.85
2018-07-05T08:48:47.815Z,6.42
2018-07-05T08:51:15.139Z,3.80
2018-07-05T08:53:42.389Z,6.20
2018-07-05T08:56:09.640Z,4.10
2018-07-05T08:58:36.929Z,5.25
2018-07-05T09:01:04.191Z,5.00
2018-07-05T09:03:31.480Z,4.72
2018-07-05T09:05:58.732Z,3.98
2018-07-05T09:08:26.025Z,4.20
2018-07-05T09:10:53.278Z,8.93
2018-07-05T09:13:20.608Z,3.55
2018-07-05T09:15:47.857Z,4.33
2018-07-05T09:18:15.201Z,3.60
2018-07-05T09:20:42.443Z,3.85
2018-07-05T09:23:09.778Z,6.55
2018-07-05T09:25:37.045Z,4.72
2018-07-05T09:28:04.640Z,4.53
2018-07-05T09:30:32.021Z,4.20
2018-07-05T09:32:59.325Z,2.20
2018-07-05T09:35:26.589Z,3.90
2018-07-05T09:37:53.890Z,4.30
2018-07-05T09:40:21.155Z,4.20
2018-07-05T09:42:48.447Z,2.12
2018-07-05T09:45:15.700Z,4.65
2018-07-05T09:47:42.993Z,4.55
2018-07-05T09:50:10.294Z,3.40
2018-07-05T09:52:37.592Z,3.90
2018-07-05T09:55:04.856Z,4.08
2018-07-05T09:57:32.232Z,4.45
2018-07-05T09:59:59.600Z,3.83
2018-07-05T10:02:26.856Z,3.12
2018-07-05T10:04:54.149Z,3.83
2018-07-05T10:07:21.412Z,2.00
2018-07-05T10:09:49.273Z,7.42
2018-07-05T10:12:19.954Z,5.15
2018-07-05T10:14:47.255Z,6.70
2018-07-05T10:17:14.541Z,7.37
2018-07-05T10:19:41.828Z,17.57
2018-07-05T10:22:09.096Z,4.72
2018-07-05T10:24:36.486Z,6.62
2018-07-05T10:27:03.935Z,5.35
2018-07-05T10:29:43.579Z,7.45
2018-07-05T10:32:23.037Z,5.75
2018-07-05T10:34:50.361Z,8.65
2018-07-05T10:37:23.211Z,8.90
2018-07-05T10:40:03.725Z,11.73
2018-07-05T10:42:43.372Z,15.18
2018-07-05T10:45:23.025Z,6.15
2018-07-05T10:48:02.700Z,5.90
2018-07-05T10:50:42.365Z,6.00
2018-07-05T10:53:21.944Z,5.47
2018-07-05T10:56:01.392Z,7.28
2018-07-05T10:58:41.190Z,6.08
2018-07-05T11:01:20.761Z,8.60
2018-07-05T11:04:00.485Z,5.87
2018-07-05T11:06:40.117Z,6.10
2018-07-05T11:09:20.630Z,7.03
2018-07-05T11:12:00.288Z,4.25
2018-07-05T11:14:40.067Z,5.72
2018-07-05T11:17:19.899Z,8.70
2018-07-05T11:19:59.537Z,4.67
2018-07-05T11:22:38.968Z,4.97
2018-07-05T11:25:18.575Z,5.25
2018-07-05T11:27:58.146Z,6.03
2018-07-05T11:30:37.775Z,5.42
2018-07-05T11:33:17.412Z,6.12
2018-07-05T11:35:57.064Z,7.12
2018-07-05T11:38:36.715Z,7.50
2018-07-05T11:41:16.217Z,9.30
2018-07-05T11:43:56.305Z,4.97
2018-07-05T11:46:35.997Z,4.90
2018-07-05T11:49:15.536Z,6.50
2018-07-05T11:51:55.064Z,4.95
2018-07-05T11:54:34.746Z,7.95
2018-07-05T11:57:14.317Z,10.68
2018-07-05T11:59:53.908Z,3.95
2018-07-05T12:02:33.655Z,6.72
2018-07-05T12:05:13.293Z,6.35
2018-07-05T12:07:52.968Z,8.13
2018-07-05T12:10:32.658Z,8.23
2018-07-05T12:13:12.172Z,8.85
2018-07-05T12:15:45.812Z,7.15
2018-07-05T12:18:25.336Z,7.67
2018-07-05T12:21:04.924Z,5.90
2018-07-05T12:23:44.524Z,7.03
2018-07-05T12:26:24.140Z,6.72
2018-07-05T12:29:03.937Z,9.65
2018-07-05T12:31:43.609Z,15.03
2018-07-05T12:34:23.343Z,7.80
2018-07-05T12:37:02.890Z,8.95
2018-07-05T12:39:42.625Z,9.30
2018-07-05T12:42:22.388Z,7.25
2018-07-05T12:45:01.917Z,9.03
2018-07-05T12:47:41.596Z,7.78
2018-07-05T12:50:21.109Z,8.73
2018-07-05T12:53:00.741Z,8.45
2018-07-05T12:55:40.480Z,7.87
2018-07-05T12:58:20.271Z,8.90
2018-07-05T13:01:00.008Z,7.35
2018-07-05T13:03:39.649Z,8.30
2018-07-05T13:06:19.338Z,7.20
2018-07-05T13:08:59.129Z,9.33
2018-07-05T13:11:38.724Z,11.70
2018-07-05T13:14:18.220Z,8.18
2018-07-05T13:16:57.860Z,7.12
2018-07-05T13:19:37.428Z,10.72
2018-07-05T13:22:17.037Z,10.70
2018-07-05T13:24:56.614Z,8.75
2018-07-05T13:27:36.301Z,8.93
2018-07-05T13:30:15.740Z,17.37
2018-07-05T13:32:55.400Z,10.78
2018-07-05T13:35:35.145Z,12.37
2018-07-05T13:38:14.849Z,12.80
2018-07-05T13:40:48.427Z,9.10
2018-07-05T13:43:27.888Z,10.93
2018-07-05T13:46:07.574Z,11.38
2018-07-05T13:48:47.112Z,14.87
2018-07-05T13:51:26.796Z,7.85
2018-07-05T13:54:06.394Z,13.32
2018-07-05T13:56:45.869Z,8.48
2018-07-05T13:59:25.398Z,11.30
2018-07-05T14:02:04.985Z,11.60
2018-07-05T14:04:44.557Z,11.75
2018-07-05T14:07:24.264Z,8.63
2018-07-05T14:10:03.865Z,9.53
2018-07-05T14:12:43.428Z,14.98
2018-07-05T14:15:23.172Z,8.68
2018-07-05T14:18:03.024Z,6.72
2018-07-05T14:20:42.531Z,5.37
2018-07-05T14:23:22.024Z,5.90
2018-07-05T14:26:01.633Z,8.30
2018-07-05T14:28:41.245Z,6.78
2018-07-05T14:31:21.032Z,10.53
2018-07-05T14:34:00.629Z,8.73
2018-07-05T14:36:34.208Z,11.35
2018-07-05T14:39:13.694Z,9.88
2018-07-05T14:41:53.289Z,7.28
2018-07-05T14:44:32.796Z,13.68
2018-07-05T14:47:12.469Z,10.70
2018-07-05T14:49:52.233Z,8.20
2018-07-05T14:52:25.832Z,8.35
2018-07-05T14:55:05.213Z,9.90
2018-07-05T14:57:44.976Z,10.48
2018-07-05T15:00:24.648Z,11.28
2018-07-05T15:03:04.165Z,11.35
2018-07-05T15:05:43.832Z,14.58
2018-07-05T15:08:23.492Z,9.23
2018-07-05T15:11:03.181Z,12.50
2018-07-05T15:13:42.749Z,10.82
2018-07-05T15:16:22.376Z,10.03
2018-07-05T15:19:02.031Z,8.33
2018-07-05T15:21:41.653Z,10.23
2018-07-05T15:24:21.424Z,9.13
2018-07-05T15:27:01.055Z,9.90
2018-07-05T15:29:40.640Z,11.40
2018-07-05T15:32:20.148Z,9.55
2018-07-05T15:34:59.728Z,9.70
2018-07-05T15:37:39.624Z,14.23
2018-07-05T15:40:19.204Z,10.15
2018-07-05T15:42:59.252Z,12.60
2018-07-05T15:45:38.851Z,14.10
2018-07-05T15:48:18.585Z,9.83
2018-07-05T15:50:58.125Z,9.80
2018-07-05T15:53:37.820Z,9.10
2018-07-05T15:56:17.513Z,9.75
2018-07-05T15:58:57.179Z,7.80
2018-07-05T16:01:36.864Z,9.28
2018-07-05T16:04:16.380Z,11.03
2018-07-05T16:06:56.109Z,10.38
2018-07-05T16:09:35.737Z,8.60
2018-07-05T16:12:15.404Z,7.35
2018-07-05T16:14:55.196Z,10.82
2018-07-05T16:17:34.790Z,10.45
2018-07-05T16:20:14.484Z,12.10
2018-07-05T16:22:54.101Z,11.12
2018-07-05T16:25:33.836Z,9.78
2018-07-05T16:28:13.527Z,10.55
2018-07-05T16:30:53.132Z,9.10
2018-07-05T16:33:32.853Z,8.10
2018-07-05T16:36:12.416Z,8.25
2018-07-05T16:38:51.913Z,9.78
2018-07-05T16:41:31.377Z,8.60
2018-07-05T16:44:11.085Z,10.32
2018-07-05T16:46:50.787Z,7.53
2018-07-05T16:49:30.463Z,8.28
2018-07-05T16:52:10.109Z,13.13
2018-07-05T16:54:49.868Z,9.40
2018-07-05T16:57:29.381Z,11.25
2018-07-05T17:00:09.336Z,10.10
2018-07-05T17:02:48.953Z,13.40
2018-07-05T17:05:28.656Z,16.42
2018-07-05T17:08:08.400Z,14.93
2018-07-05T17:10:48.038Z,14.45
2018-07-05T17:13:27.634Z,15.88
2018-07-05T17:16:07.219Z,15.50
2018-07-05T17:18:46.840Z,11.93
2018-07-05T17:21:26.375Z,13.25
2018-07-05T17:24:06.120Z,19.10
2018-07-05T17:26:45.867Z,12.20
2018-07-05T17:29:25.624Z,11.93
2018-07-05T17:32:05.234Z,8.30
2018-07-05T17:34:45.538Z,10.35
2018-07-05T17:37:25.157Z,9.85
2018-07-05T17:40:04.796Z,11.80
2018-07-05T17:42:44.496Z,10.78
2018-07-05T17:45:24.140Z,12.80
2018-07-05T17:48:03.920Z,10.80
2018-07-05T17:50:43.704Z,9.68
2018-07-05T17:53:23.305Z,12.53
2018-07-05T17:56:02.845Z,9.35
2018-07-05T17:58:42.364Z,12.05
2018-07-05T18:01:22.056Z,7.55
2018-07-05T18:04:01.674Z,11.60
2018-07-05T18:06:41.204Z,9.18
2018-07-05T18:09:20.853Z,8.78
2018-07-05T18:12:00.325Z,7.95
2018-07-05T18:14:39.876Z,14.05
2018-07-05T18:17:19.477Z,10.55
2018-07-05T18:19:59.104Z,7.55
2018-07-05T18:22:38.635Z,11.10
2018-07-05T18:25:18.225Z,5.95
2018-07-05T18:27:58.104Z,6.20
2018-07-05T18:30:37.681Z,7.30
2018-07-05T18:33:11.300Z,6.42
2018-07-05T18:35:50.944Z,10.98
2018-07-05T18:38:30.348Z,9.63
2018-07-05T18:41:10.200Z,6.03
2018-07-05T18:43:49.877Z,5.42
2018-07-05T18:46:29.456Z,5.80
2018-07-05T18:49:09.224Z,5.47
2018-07-05T18:51:48.860Z,6.10
2018-07-05T18:54:28.530Z,7.83
2018-07-05T18:57:08.065Z,9.50
2018-07-05T18:59:47.533Z,7.20
2018-07-05T19:02:26.924Z,9.98
2018-07-05T19:05:06.549Z,8.38
2018-07-05T19:07:46.416Z,10.05
2018-07-05T19:10:26.164Z,10.08
2018-07-05T19:13:05.816Z,14.73
2018-07-05T19:15:45.534Z,9.20
2018-07-05T19:18:25.073Z,8.88
2018-07-05T19:21:04.646Z,9.60
2018-07-05T19:23:44.584Z,8.93
2018-07-05T19:26:24.232Z,6.65
2018-07-05T19:29:03.892Z,9.55
2018-07-05T19:31:43.574Z,9.43
2018-07-05T19:34:23.155Z,9.80
2018-07-05T19:37:02.556Z,16.05
2018-07-05T19:39:42.949Z,16.80
2018-07-05T19:42:22.646Z,21.77
2018-07-05T19:45:02.282Z,12.55
2018-07-05T19:47:41.993Z,11.00
2018-07-05T19:50:21.677Z,9.45
2018-07-05T19:53:01.501Z,8.63
2018-07-05T19:55:41.101Z,11.70
2018-07-05T19:58:20.689Z,11.38
2018-07-05T20:01:00.445Z,9.63
2018-07-05T20:03:40.220Z,12.33
2018-07-05T20:06:19.821Z,7.60
2018-07-05T20:08:59.349Z,8.65
2018-07-05T20:11:43.369Z,10.40
2018-07-05T20:14:23.133Z,7.62
2018-07-05T20:17:02.861Z,16.27
2018-07-05T20:19:42.402Z,12.93
2018-07-05T20:22:21.891Z,8.70
2018-07-05T20:25:01.468Z,8.58
2018-07-05T20:27:41.048Z,8.25
2018-07-05T20:30:20.904Z,8.25
2018-07-05T20:33:00.345Z,8.55
2018-07-05T20:35:40.104Z,7.12
2018-07-05T20:38:19.873Z,8.98
2018-07-05T20:40:59.384Z,12.18
2018-07-05T20:43:38.995Z,12.85
2018-07-05T20:46:18.352Z,8.78
2018-07-05T20:48:57.961Z,8.58
2018-07-05T20:51:37.658Z,11.97
2018-07-05T20:54:17.284Z,10.00
2018-07-05T20:56:56.825Z,8.28
2018-07-05T20:59:36.443Z,7.12
2018-07-05T21:02:15.888Z,9.03
2018-07-05T21:04:55.489Z,11.55
2018-07-05T21:07:35.152Z,9.40
2018-07-05T21:10:14.638Z,12.58
2018-07-05T21:12:54.279Z,15.63
2018-07-05T21:15:34.164Z,8.93
2018-07-05T21:18:13.842Z,15.00
2018-07-05T21:20:53.465Z,10.50
2018-07-05T21:23:33.244Z,11.18
2018-07-05T21:26:12.945Z,12.93
2018-07-05T21:28:52.753Z,9.23
2018-07-05T21:31:32.346Z,19.77
2018-07-05T21:34:12.019Z,18.15
2018-07-05T21:36:51.750Z,14.95
2018-07-05T21:39:31.613Z,10.18
2018-07-05T21:42:11.129Z,16.97
2018-07-05T21:44:50.852Z,11.63
2018-07-05T21:47:30.600Z,13.85
2018-07-05T21:50:10.288Z,16.48
2018-07-05T21:52:49.939Z,16.23
2018-07-05T21:55:29.604Z,11.00
2018-07-05T21:58:09.358Z,12.47
2018-07-05T22:00:48.851Z,20.30
2018-07-05T22:03:28.677Z,13.38
2018-07-05T22:06:08.253Z,10.80
2018-07-05T22:08:47.789Z,18.80
2018-07-05T22:11:27.407Z,15.05
2018-07-05T22:14:06.961Z,18.52
2018-07-05T22:16:52.107Z,15.53
2018-07-05T22:19:37.240Z,13.62
2018-07-05T22:22:22.293Z,10.95
2018-07-05T22:25:07.476Z,13.32
2018-07-05T22:27:52.696Z,15.75
2018-07-05T22:30:37.809Z,9.30
2018-07-05T22:33:17.620Z,12.45
2018-07-05T22:35:57.184Z,19.00
2018-07-05T22:38:36.880Z,13.75
2018-07-05T22:41:16.672Z,12.13
2018-07-05T22:43:56.252Z,23.35
2018-07-05T22:46:36.005Z,10.05
2018-07-05T22:49:15.621Z,14.80
2018-07-05T22:51:55.316Z,7.55
2018-07-05T22:54:29.021Z,14.25
2018-07-05T22:57:08.596Z,8.78
2018-07-05T22:59:48.300Z,9.75
2018-07-05T23:02:27.761Z,12.60
2018-07-05T23:05:07.395Z,12.65
2018-07-05T23:07:47.002Z,16.12
2018-07-05T23:10:26.632Z,10.30
2018-07-05T23:13:06.282Z,8.90
2018-07-05T23:15:45.981Z,15.18
2018-07-05T23:18:25.673Z,16.60
2018-07-05T23:21:05.437Z,11.68
2018-07-05T23:23:45.031Z,13.78
2018-07-05T23:26:24.709Z,21.50
2018-07-05T23:29:04.377Z,11.88
2018-07-05T23:31:44.132Z,14.53
2018-07-05T23:34:23.629Z,14.95
2018-07-05T23:37:03.115Z,10.23
2018-07-05T23:39:42.857Z,10.63
2018-07-05T23:42:22.487Z,10.80
2018-07-05T23:45:02.133Z,13.98
2018-07-05T23:47:41.824Z,13.40
2018-07-05T23:50:21.549Z,11.00
2018-07-05T23:53:01.113Z,19.35
2018-07-05T23:55:40.976Z,13.70
2018-07-05T23:58:20.656Z,20.17
